sensor_id;sensor_type;location;lat;lon;timestamp;temperature;humidity
69208;SHT31;70114;47.690;8.898;2023-12-07T00:02:06;3.36;86.43
69208;SHT31;70114;47.690;8.898;2023-12-07T00:04:32;3.36;86.78
69208;SHT31;70114;47.690;8.898;2023-12-07T00:06:57;3.35;86.37
69208;SHT31;70114;47.690;8.898;2023-12-07T00:09:23;3.34;86.48
69208;SHT31;70114;47.690;8.898;2023-12-07T00:11:49;3.34;86.66
69208;SHT31;70114;47.690;8.898;2023-12-07T00:14:14;3.36;86.59
69208;SHT31;70114;47.690;8.898;2023-12-07T00:16:40;3.38;86.28
69208;SHT31;70114;47.690;8.898;2023-12-07T00:19:05;3.38;86.54
69208;SHT31;70114;47.690;8.898;2023-12-07T00:21:31;3.34;86.54
69208;SHT31;70114;47.690;8.898;2023-12-07T00:23:56;3.35;86.84
69208;SHT31;70114;47.690;8.898;2023-12-07T00:26:22;3.32;86.49
69208;SHT31;70114;47.690;8.898;2023-12-07T00:28:47;3.34;86.53
69208;SHT31;70114;47.690;8.898;2023-12-07T00:31:13;3.34;86.62
69208;SHT31;70114;47.690;8.898;2023-12-07T00:33:38;3.32;86.61
69208;SHT31;70114;47.690;8.898;2023-12-07T00:36:04;3.34;86.57
69208;SHT31;70114;47.690;8.898;2023-12-07T00:38:29;3.32;86.62
69208;SHT31;70114;47.690;8.898;2023-12-07T00:40:57;3.32;86.62
69208;SHT31;70114;47.690;8.898;2023-12-07T00:43:23;3.36;86.63
69208;SHT31;70114;47.690;8.898;2023-12-07T00:45:48;3.35;86.54
69208;SHT31;70114;47.690;8.898;2023-12-07T00:48:14;3.34;86.53
69208;SHT31;70114;47.690;8.898;2023-12-07T00:50:39;3.29;86.54
69208;SHT31;70114;47.690;8.898;2023-12-07T00:53:05;3.29;86.51
69208;SHT31;70114;47.690;8.898;2023-12-07T00:55:30;3.32;86.43
69208;SHT31;70114;47.690;8.898;2023-12-07T00:57:56;3.34;86.42
69208;SHT31;70114;47.690;8.898;2023-12-07T01:00:21;3.32;86.48
69208;SHT31;70114;47.690;8.898;2023-12-07T01:02:47;3.07;87.33
69208;SHT31;70114;47.690;8.898;2023-12-07T01:05:13;3.22;86.94
69208;SHT31;70114;47.690;8.898;2023-12-07T01:07:38;3.22;86.92
69208;SHT31;70114;47.690;8.898;2023-12-07T01:10:04;3.26;87.01
69208;SHT31;70114;47.690;8.898;2023-12-07T01:12:31;3.25;87.04
69208;SHT31;70114;47.690;8.898;2023-12-07T01:14:56;3.26;86.67
69208;SHT31;70114;47.690;8.898;2023-12-07T01:17:21;3.25;86.83
69208;SHT31;70114;47.690;8.898;2023-12-07T01:19:47;3.24;86.72
69208;SHT31;70114;47.690;8.898;2023-12-07T01:22:12;3.25;86.83
69208;SHT31;70114;47.690;8.898;2023-12-07T01:24:38;3.25;86.57
69208;SHT31;70114;47.690;8.898;2023-12-07T01:27:03;3.24;86.57
69208;SHT31;70114;47.690;8.898;2023-12-07T01:29:29;3.21;86.62
69208;SHT31;70114;47.690;8.898;2023-12-07T01:31:54;3.11;87.11
69208;SHT31;70114;47.690;8.898;2023-12-07T01:34:20;3.17;86.96
69208;SHT31;70114;47.690;8.898;2023-12-07T01:36:45;3.21;87.05
69208;SHT31;70114;47.690;8.898;2023-12-07T01:39:11;3.21;87.15
69208;SHT31;70114;47.690;8.898;2023-12-07T01:41:39;3.18;86.94
69208;SHT31;70114;47.690;8.898;2023-12-07T01:44:05;3.18;86.82
69208;SHT31;70114;47.690;8.898;2023-12-07T01:46:32;3.15;87.00
69208;SHT31;70114;47.690;8.898;2023-12-07T01:48:58;3.12;87.18
69208;SHT31;70114;47.690;8.898;2023-12-07T01:51:24;3.12;87.29
69208;SHT31;70114;47.690;8.898;2023-12-07T01:53:50;3.11;87.00
69208;SHT31;70114;47.690;8.898;2023-12-07T01:56:16;2.96;87.20
69208;SHT31;70114;47.690;8.898;2023-12-07T01:58:42;3.00;87.19
69208;SHT31;70114;47.690;8.898;2023-12-07T02:01:08;3.08;86.85
69208;SHT31;70114;47.690;8.898;2023-12-07T02:03:41;3.08;86.67
69208;SHT31;70114;47.690;8.898;2023-12-07T02:06:07;3.09;86.51
69208;SHT31;70114;47.690;8.898;2023-12-07T02:08:36;3.08;86.31
69208;SHT31;70114;47.690;8.898;2023-12-07T02:11:07;3.05;86.08
69208;SHT31;70114;47.690;8.898;2023-12-07T02:13:34;3.11;86.11
69208;SHT31;70114;47.690;8.898;2023-12-07T02:16:21;3.08;86.35
69208;SHT31;70114;47.690;8.898;2023-12-07T02:18:54;3.05;86.11
69208;SHT31;70114;47.690;8.898;2023-12-07T02:21:37;2.75;87.29
69208;SHT31;70114;47.690;8.898;2023-12-07T02:24:05;2.90;86.92
69208;SHT31;70114;47.690;8.898;2023-12-07T02:26:53;2.94;86.67
69208;SHT31;70114;47.690;8.898;2023-12-07T02:29:18;2.93;86.67
69208;SHT31;70114;47.690;8.898;2023-12-07T02:31:44;2.97;86.55
69208;SHT31;70114;47.690;8.898;2023-12-07T02:34:09;2.94;86.39
69208;SHT31;70114;47.690;8.898;2023-12-07T02:36:36;2.84;86.81
69208;SHT31;70114;47.690;8.898;2023-12-07T02:39:04;2.86;86.86
69208;SHT31;70114;47.690;8.898;2023-12-07T02:41:31;2.91;86.78
69208;SHT31;70114;47.690;8.898;2023-12-07T02:43:58;2.91;86.47
69208;SHT31;70114;47.690;8.898;2023-12-07T02:46:25;2.88;86.74
69208;SHT31;70114;47.690;8.898;2023-12-07T02:48:50;2.77;87.15
69208;SHT31;70114;47.690;8.898;2023-12-07T02:51:16;2.83;87.52
69208;SHT31;70114;47.690;8.898;2023-12-07T02:53:41;2.72;88.14
69208;SHT31;70114;47.690;8.898;2023-12-07T02:56:07;2.76;88.43
69208;SHT31;70114;47.690;8.898;2023-12-07T02:58:32;2.81;88.23
69208;SHT31;70114;47.690;8.898;2023-12-07T03:00:58;2.88;88.17
69208;SHT31;70114;47.690;8.898;2023-12-07T03:03:24;2.87;88.34
69208;SHT31;70114;47.690;8.898;2023-12-07T03:05:49;2.80;88.90
69208;SHT31;70114;47.690;8.898;2023-12-07T03:08:15;2.83;88.76
69208;SHT31;70114;47.690;8.898;2023-12-07T03:10:40;2.87;88.46
69208;SHT31;70114;47.690;8.898;2023-12-07T03:13:06;2.94;88.51
69208;SHT31;70114;47.690;8.898;2023-12-07T03:15:31;2.96;88.62
69208;SHT31;70114;47.690;8.898;2023-12-07T03:17:57;2.97;88.63
69208;SHT31;70114;47.690;8.898;2023-12-07T03:20:22;3.01;88.47
69208;SHT31;70114;47.690;8.898;2023-12-07T03:22:47;3.03;88.23
69208;SHT31;70114;47.690;8.898;2023-12-07T03:25:13;2.88;87.97
69208;SHT31;70114;47.690;8.898;2023-12-07T03:27:38;3.01;87.95
69208;SHT31;70114;47.690;8.898;2023-12-07T03:30:04;2.98;88.08
69208;SHT31;70114;47.690;8.898;2023-12-07T03:32:30;3.00;87.71
69208;SHT31;70114;47.690;8.898;2023-12-07T03:34:55;2.88;87.88
69208;SHT31;70114;47.690;8.898;2023-12-07T03:37:21;2.90;87.81
69208;SHT31;70114;47.690;8.898;2023-12-07T03:39:46;2.91;87.72
69208;SHT31;70114;47.690;8.898;2023-12-07T03:42:12;2.91;87.44
69208;SHT31;70114;47.690;8.898;2023-12-07T03:44:37;2.70;86.87
69208;SHT31;70114;47.690;8.898;2023-12-07T03:47:03;2.43;87.10
69208;SHT31;70114;47.690;8.898;2023-12-07T03:49:28;2.38;87.17
69208;SHT31;70114;47.690;8.898;2023-12-07T03:51:54;2.19;86.97
69208;SHT31;70114;47.690;8.898;2023-12-07T03:54:19;2.26;86.90
69208;SHT31;70114;47.690;8.898;2023-12-07T03:56:44;2.32;86.54
69208;SHT31;70114;47.690;8.898;2023-12-07T03:59:10;2.35;86.31
69208;SHT31;70114;47.690;8.898;2023-12-07T04:01:35;2.38;87.26
69208;SHT31;70114;47.690;8.898;2023-12-07T04:04:01;2.35;86.81
69208;SHT31;70114;47.690;8.898;2023-12-07T04:06:26;2.33;86.68
69208;SHT31;70114;47.690;8.898;2023-12-07T04:08:52;2.21;86.15
69208;SHT31;70114;47.690;8.898;2023-12-07T04:11:18;2.05;86.02
69208;SHT31;70114;47.690;8.898;2023-12-07T04:13:43;2.15;86.11
69208;SHT31;70114;47.690;8.898;2023-12-07T04:16:10;2.21;86.16
69208;SHT31;70114;47.690;8.898;2023-12-07T04:18:35;2.19;86.14
69208;SHT31;70114;47.690;8.898;2023-12-07T04:21:01;2.10;85.81
69208;SHT31;70114;47.690;8.898;2023-12-07T04:23:27;2.08;85.43
69208;SHT31;70114;47.690;8.898;2023-12-07T04:25:53;2.05;84.68
69208;SHT31;70114;47.690;8.898;2023-12-07T04:28:18;2.07;85.21
69208;SHT31;70114;47.690;8.898;2023-12-07T04:30:44;2.05;85.09
69208;SHT31;70114;47.690;8.898;2023-12-07T04:33:09;2.04;85.47
69208;SHT31;70114;47.690;8.898;2023-12-07T04:35:35;1.97;85.42
69208;SHT31;70114;47.690;8.898;2023-12-07T04:38:01;1.80;85.21
69208;SHT31;70114;47.690;8.898;2023-12-07T04:40:26;1.90;85.30
69208;SHT31;70114;47.690;8.898;2023-12-07T04:42:52;1.90;85.39
69208;SHT31;70114;47.690;8.898;2023-12-07T04:45:18;1.90;85.14
69208;SHT31;70114;47.690;8.898;2023-12-07T04:47:43;1.73;85.99
69208;SHT31;70114;47.690;8.898;2023-12-07T04:50:09;1.44;88.44
69208;SHT31;70114;47.690;8.898;2023-12-07T04:52:37;1.74;87.52
69208;SHT31;70114;47.690;8.898;2023-12-07T04:55:03;1.74;87.36
69208;SHT31;70114;47.690;8.898;2023-12-07T04:57:29;1.77;88.68
69208;SHT31;70114;47.690;8.898;2023-12-07T04:59:54;1.90;88.22
69208;SHT31;70114;47.690;8.898;2023-12-07T05:02:20;1.95;87.96
69208;SHT31;70114;47.690;8.898;2023-12-07T05:04:45;2.07;87.74
69208;SHT31;70114;47.690;8.898;2023-12-07T05:07:12;1.78;89.91
69208;SHT31;70114;47.690;8.898;2023-12-07T05:09:38;2.00;88.83
69208;SHT31;70114;47.690;8.898;2023-12-07T05:12:04;2.08;88.65
69208;SHT31;70114;47.690;8.898;2023-12-07T05:14:33;2.18;88.39
69208;SHT31;70114;47.690;8.898;2023-12-07T05:17:00;2.21;88.40
69208;SHT31;70114;47.690;8.898;2023-12-07T05:19:26;2.28;88.16
69208;SHT31;70114;47.690;8.898;2023-12-07T05:21:52;2.38;87.97
69208;SHT31;70114;47.690;8.898;2023-12-07T05:24:17;2.28;88.74
69208;SHT31;70114;47.690;8.898;2023-12-07T05:26:44;2.29;88.28
69208;SHT31;70114;47.690;8.898;2023-12-07T05:29:12;2.26;88.34
69208;SHT31;70114;47.690;8.898;2023-12-07T05:31:39;2.35;88.05
69208;SHT31;70114;47.690;8.898;2023-12-07T05:34:04;2.28;88.41
69208;SHT31;70114;47.690;8.898;2023-12-07T05:36:30;2.35;88.09
69208;SHT31;70114;47.690;8.898;2023-12-07T05:38:56;2.33;88.16
69208;SHT31;70114;47.690;8.898;2023-12-07T05:41:21;2.36;87.84
69208;SHT31;70114;47.690;8.898;2023-12-07T05:43:47;2.28;87.65
69208;SHT31;70114;47.690;8.898;2023-12-07T05:46:12;2.29;87.82
69208;SHT31;70114;47.690;8.898;2023-12-07T05:48:38;2.35;87.75
69208;SHT31;70114;47.690;8.898;2023-12-07T05:51:04;2.35;87.48
69208;SHT31;70114;47.690;8.898;2023-12-07T05:53:29;2.36;87.12
69208;SHT31;70114;47.690;8.898;2023-12-07T05:55:58;2.35;86.89
69208;SHT31;70114;47.690;8.898;2023-12-07T05:58:23;2.31;87.21
69208;SHT31;70114;47.690;8.898;2023-12-07T06:00:48;2.17;87.97
69208;SHT31;70114;47.690;8.898;2023-12-07T06:03:14;1.94;89.65
69208;SHT31;70114;47.690;8.898;2023-12-07T06:05:41;2.00;89.19
69208;SHT31;70114;47.690;8.898;2023-12-07T06:08:07;2.11;88.44
69208;SHT31;70114;47.690;8.898;2023-12-07T06:10:32;2.15;88.32
69208;SHT31;70114;47.690;8.898;2023-12-07T06:12:58;2.21;87.61
69208;SHT31;70114;47.690;8.898;2023-12-07T06:15:26;2.22;88.20
69208;SHT31;70114;47.690;8.898;2023-12-07T06:17:51;2.28;88.12
69208;SHT31;70114;47.690;8.898;2023-12-07T06:20:17;2.29;88.37
69208;SHT31;70114;47.690;8.898;2023-12-07T06:22:42;2.35;87.98
69208;SHT31;70114;47.690;8.898;2023-12-07T06:25:08;2.15;89.48
69208;SHT31;70114;47.690;8.898;2023-12-07T06:27:37;2.28;88.75
69208;SHT31;70114;47.690;8.898;2023-12-07T06:30:03;2.35;88.33
69208;SHT31;70114;47.690;8.898;2023-12-07T06:32:31;2.40;88.21
69208;SHT31;70114;47.690;8.898;2023-12-07T06:34:56;2.26;88.78
69208;SHT31;70114;47.690;8.898;2023-12-07T06:37:22;2.40;88.17
69208;SHT31;70114;47.690;8.898;2023-12-07T06:39:47;2.43;88.10
69208;SHT31;70114;47.690;8.898;2023-12-07T06:42:14;2.39;87.96
69208;SHT31;70114;47.690;8.898;2023-12-07T06:44:39;2.17;88.58
69208;SHT31;70114;47.690;8.898;2023-12-07T06:47:05;2.15;87.98
69208;SHT31;70114;47.690;8.898;2023-12-07T06:49:31;1.97;88.05
69208;SHT31;70114;47.690;8.898;2023-12-07T06:51:56;1.84;88.31
69208;SHT31;70114;47.690;8.898;2023-12-07T06:54:22;1.74;89.09
69208;SHT31;70114;47.690;8.898;2023-12-07T06:56:47;1.75;88.42
69208;SHT31;70114;47.690;8.898;2023-12-07T06:59:13;1.81;87.62
69208;SHT31;70114;47.690;8.898;2023-12-07T07:01:39;1.56;87.95
69208;SHT31;70114;47.690;8.898;2023-12-07T07:04:05;1.67;88.09
69208;SHT31;70114;47.690;8.898;2023-12-07T07:06:30;1.63;87.87
69208;SHT31;70114;47.690;8.898;2023-12-07T07:08:56;1.83;88.13
69208;SHT31;70114;47.690;8.898;2023-12-07T07:11:21;1.87;88.04
69208;SHT31;70114;47.690;8.898;2023-12-07T07:13:46;1.80;88.27
69208;SHT31;70114;47.690;8.898;2023-12-07T07:16:12;1.95;88.29
69208;SHT31;70114;47.690;8.898;2023-12-07T07:18:38;2.04;87.96
69208;SHT31;70114;47.690;8.898;2023-12-07T07:21:04;1.95;88.82
69208;SHT31;70114;47.690;8.898;2023-12-07T07:23:29;1.91;88.89
69208;SHT31;70114;47.690;8.898;2023-12-07T07:25:55;2.12;88.45
69208;SHT31;70114;47.690;8.898;2023-12-07T07:28:20;2.24;88.37
69208;SHT31;70114;47.690;8.898;2023-12-07T07:30:46;2.31;88.17
69208;SHT31;70114;47.690;8.898;2023-12-07T07:33:12;2.39;87.96
69208;SHT31;70114;47.690;8.898;2023-12-07T07:35:37;2.50;87.74
69208;SHT31;70114;47.690;8.898;2023-12-07T07:38:02;2.54;87.61
69208;SHT31;70114;47.690;8.898;2023-12-07T07:40:28;2.43;88.03
69208;SHT31;70114;47.690;8.898;2023-12-07T07:42:53;2.59;87.62
69208;SHT31;70114;47.690;8.898;2023-12-07T07:45:19;2.66;87.45
69208;SHT31;70114;47.690;8.898;2023-12-07T07:47:44;2.73;87.15
69208;SHT31;70114;47.690;8.898;2023-12-07T07:50:10;2.57;87.35
69208;SHT31;70114;47.690;8.898;2023-12-07T07:52:35;2.73;87.19
69208;SHT31;70114;47.690;8.898;2023-12-07T07:55:03;2.81;87.27
69208;SHT31;70114;47.690;8.898;2023-12-07T07:57:29;2.88;86.76
69208;SHT31;70114;47.690;8.898;2023-12-07T07:59:56;2.83;86.74
69208;SHT31;70114;47.690;8.898;2023-12-07T08:02:21;2.88;86.69
69208;SHT31;70114;47.690;8.898;2023-12-07T08:04:47;2.86;86.19
69208;SHT31;70114;47.690;8.898;2023-12-07T08:07:12;2.97;86.16
69208;SHT31;70114;47.690;8.898;2023-12-07T08:09:38;2.83;86.57
69208;SHT31;70114;47.690;8.898;2023-12-07T08:12:03;2.96;86.29
69208;SHT31;70114;47.690;8.898;2023-12-07T08:14:29;3.04;86.27
69208;SHT31;70114;47.690;8.898;2023-12-07T08:16:54;3.01;86.05
69208;SHT31;70114;47.690;8.898;2023-12-07T08:19:21;3.04;85.85
69208;SHT31;70114;47.690;8.898;2023-12-07T08:21:46;3.12;86.05
69208;SHT31;70114;47.690;8.898;2023-12-07T08:24:11;3.15;85.42
69208;SHT31;70114;47.690;8.898;2023-12-07T08:26:38;3.22;85.67
69208;SHT31;70114;47.690;8.898;2023-12-07T08:29:04;3.17;85.30
69208;SHT31;70114;47.690;8.898;2023-12-07T08:31:30;3.29;85.32
69208;SHT31;70114;47.690;8.898;2023-12-07T08:33:55;3.39;85.32
69208;SHT31;70114;47.690;8.898;2023-12-07T08:36:21;3.32;84.90
69208;SHT31;70114;47.690;8.898;2023-12-07T08:38:46;3.25;85.14
69208;SHT31;70114;47.690;8.898;2023-12-07T08:41:12;3.42;84.26
69208;SHT31;70114;47.690;8.898;2023-12-07T08:43:37;3.42;84.51
69208;SHT31;70114;47.690;8.898;2023-12-07T08:46:02;3.46;84.30
69208;SHT31;70114;47.690;8.898;2023-12-07T08:48:29;3.38;83.75
69208;SHT31;70114;47.690;8.898;2023-12-07T08:50:54;3.28;84.05
69208;SHT31;70114;47.690;8.898;2023-12-07T08:53:20;3.31;84.11
69208;SHT31;70114;47.690;8.898;2023-12-07T08:55:45;3.24;83.94
69208;SHT31;70114;47.690;8.898;2023-12-07T08:58:11;3.38;84.05
69208;SHT31;70114;47.690;8.898;2023-12-07T09:00:37;3.52;84.19
69208;SHT31;70114;47.690;8.898;2023-12-07T09:03:05;3.65;84.00
69208;SHT31;70114;47.690;8.898;2023-12-07T09:05:30;3.18;82.83
69208;SHT31;70114;47.690;8.898;2023-12-07T09:07:56;3.36;83.45
69208;SHT31;70114;47.690;8.898;2023-12-07T09:10:22;3.52;83.18
69208;SHT31;70114;47.690;8.898;2023-12-07T09:12:47;3.26;84.23
69208;SHT31;70114;47.690;8.898;2023-12-07T09:15:13;3.15;83.19
69208;SHT31;70114;47.690;8.898;2023-12-07T09:17:39;2.81;84.71
69208;SHT31;70114;47.690;8.898;2023-12-07T09:20:06;2.73;85.85
69208;SHT31;70114;47.690;8.898;2023-12-07T09:22:37;2.77;85.80
69208;SHT31;70114;47.690;8.898;2023-12-07T09:25:02;2.70;85.78
69208;SHT31;70114;47.690;8.898;2023-12-07T09:27:28;2.64;86.97
69208;SHT31;70114;47.690;8.898;2023-12-07T09:29:57;2.73;86.03
69208;SHT31;70114;47.690;8.898;2023-12-07T09:32:22;2.75;86.79
69208;SHT31;70114;47.690;8.898;2023-12-07T09:34:47;2.67;87.24
69208;SHT31;70114;47.690;8.898;2023-12-07T09:37:16;2.79;87.04
69208;SHT31;70114;47.690;8.898;2023-12-07T09:39:41;2.88;86.51
69208;SHT31;70114;47.690;8.898;2023-12-07T09:42:07;2.98;86.49
69208;SHT31;70114;47.690;8.898;2023-12-07T09:44:32;2.77;85.94
69208;SHT31;70114;47.690;8.898;2023-12-07T09:46:58;3.14;86.12
69208;SHT31;70114;47.690;8.898;2023-12-07T09:49:24;3.39;85.14
69208;SHT31;70114;47.690;8.898;2023-12-07T09:51:50;3.40;83.59
69208;SHT31;70114;47.690;8.898;2023-12-07T09:54:16;3.60;83.51
69208;SHT31;70114;47.690;8.898;2023-12-07T09:56:43;3.76;82.85
69208;SHT31;70114;47.690;8.898;2023-12-07T09:59:09;3.66;82.12
69208;SHT31;70114;47.690;8.898;2023-12-07T10:01:34;3.36;82.16
69208;SHT31;70114;47.690;8.898;2023-12-07T10:04:20;3.59;82.86
69208;SHT31;70114;47.690;8.898;2023-12-07T10:06:48;3.43;82.00
69208;SHT31;70114;47.690;8.898;2023-12-07T10:09:14;3.67;81.90
69208;SHT31;70114;47.690;8.898;2023-12-07T10:11:40;3.49;82.35
69208;SHT31;70114;47.690;8.898;2023-12-07T10:14:06;3.74;81.86
69208;SHT31;70114;47.690;8.898;2023-12-07T10:16:36;3.74;81.36
69208;SHT31;70114;47.690;8.898;2023-12-07T10:19:14;3.56;81.91
69208;SHT31;70114;47.690;8.898;2023-12-07T10:21:43;3.70;81.62
69208;SHT31;70114;47.690;8.898;2023-12-07T10:24:09;3.83;82.14
69208;SHT31;70114;47.690;8.898;2023-12-07T10:26:34;3.91;81.67
69208;SHT31;70114;47.690;8.898;2023-12-07T10:29:04;3.83;81.43
69208;SHT31;70114;47.690;8.898;2023-12-07T10:31:30;3.95;81.83
69208;SHT31;70114;47.690;8.898;2023-12-07T10:33:56;4.07;82.22
69208;SHT31;70114;47.690;8.898;2023-12-07T10:36:22;4.18;81.50
69208;SHT31;70114;47.690;8.898;2023-12-07T10:38:47;4.25;81.36
69208;SHT31;70114;47.690;8.898;2023-12-07T10:41:16;4.32;80.60
69208;SHT31;70114;47.690;8.898;2023-12-07T10:43:43;4.30;80.51
69208;SHT31;70114;47.690;8.898;2023-12-07T10:46:13;4.22;79.89
69208;SHT31;70114;47.690;8.898;2023-12-07T10:48:40;4.15;79.92
69208;SHT31;70114;47.690;8.898;2023-12-07T10:51:08;4.00;80.21
69208;SHT31;70114;47.690;8.898;2023-12-07T10:53:37;4.07;80.79
69208;SHT31;70114;47.690;8.898;2023-12-07T10:56:10;4.11;82.05
69208;SHT31;70114;47.690;8.898;2023-12-07T10:58:35;4.11;80.43
69208;SHT31;70114;47.690;8.898;2023-12-07T11:01:01;3.82;82.14
69208;SHT31;70114;47.690;8.898;2023-12-07T11:03:27;4.07;81.88
69208;SHT31;70114;47.690;8.898;2023-12-07T11:05:54;4.20;80.95
69208;SHT31;70114;47.690;8.898;2023-12-07T11:08:28;4.35;80.77
69208;SHT31;70114;47.690;8.898;2023-12-07T11:13:49;4.45;80.13
69208;SHT31;70114;47.690;8.898;2023-12-07T11:16:17;4.28;80.29
69208;SHT31;70114;47.690;8.898;2023-12-07T11:18:42;4.37;80.27
69208;SHT31;70114;47.690;8.898;2023-12-07T11:21:08;4.44;80.19
69208;SHT31;70114;47.690;8.898;2023-12-07T11:23:33;4.42;80.24
69208;SHT31;70114;47.690;8.898;2023-12-07T11:25:59;3.97;80.05
69208;SHT31;70114;47.690;8.898;2023-12-07T11:28:38;4.37;80.53
69208;SHT31;70114;47.690;8.898;2023-12-07T11:31:06;4.44;79.94
69208;SHT31;70114;47.690;8.898;2023-12-07T11:33:31;4.48;79.66
69208;SHT31;70114;47.690;8.898;2023-12-07T11:36:07;4.56;79.82
69208;SHT31;70114;47.690;8.898;2023-12-07T11:38:38;4.27;80.05
69208;SHT31;70114;47.690;8.898;2023-12-07T11:41:04;4.30;79.73
69208;SHT31;70114;47.690;8.898;2023-12-07T11:43:36;4.65;79.43
69208;SHT31;70114;47.690;8.898;2023-12-07T11:46:06;4.70;79.47
69208;SHT31;70114;47.690;8.898;2023-12-07T11:48:32;4.27;80.44
69208;SHT31;70114;47.690;8.898;2023-12-07T11:51:05;4.46;79.94
69208;SHT31;70114;47.690;8.898;2023-12-07T11:53:32;4.51;80.00
69208;SHT31;70114;47.690;8.898;2023-12-07T11:55:59;4.51;79.96
69208;SHT31;70114;47.690;8.898;2023-12-07T11:58:25;4.63;79.69
69208;SHT31;70114;47.690;8.898;2023-12-07T12:00:52;4.66;79.32
69208;SHT31;70114;47.690;8.898;2023-12-07T12:03:18;4.69;79.07
69208;SHT31;70114;47.690;8.898;2023-12-07T12:05:44;4.79;78.95
69208;SHT31;70114;47.690;8.898;2023-12-07T12:08:10;4.73;78.96
69208;SHT31;70114;47.690;8.898;2023-12-07T12:10:37;4.65;78.30
69208;SHT31;70114;47.690;8.898;2023-12-07T12:13:03;4.42;79.80
69208;SHT31;70114;47.690;8.898;2023-12-07T12:15:29;4.49;80.10
69208;SHT31;70114;47.690;8.898;2023-12-07T12:17:58;4.73;79.84
69208;SHT31;70114;47.690;8.898;2023-12-07T12:20:24;4.69;79.12
69208;SHT31;70114;47.690;8.898;2023-12-07T12:22:51;4.45;78.84
69208;SHT31;70114;47.690;8.898;2023-12-07T12:25:22;4.34;79.49
69208;SHT31;70114;47.690;8.898;2023-12-07T12:27:51;4.69;79.06
69208;SHT31;70114;47.690;8.898;2023-12-07T12:30:17;4.63;78.65
69208;SHT31;70114;47.690;8.898;2023-12-07T12:32:44;4.27;79.56
69208;SHT31;70114;47.690;8.898;2023-12-07T12:35:09;4.22;79.74
69208;SHT31;70114;47.690;8.898;2023-12-07T12:37:35;4.45;80.28
69208;SHT31;70114;47.690;8.898;2023-12-07T12:40:08;4.24;79.57
69208;SHT31;70114;47.690;8.898;2023-12-07T12:42:34;4.37;79.97
69208;SHT31;70114;47.690;8.898;2023-12-07T12:45:05;4.59;78.90
69208;SHT31;70114;47.690;8.898;2023-12-07T12:47:31;4.40;79.11
69208;SHT31;70114;47.690;8.898;2023-12-07T12:49:56;4.27;80.24
69208;SHT31;70114;47.690;8.898;2023-12-07T12:52:23;4.21;80.82
69208;SHT31;70114;47.690;8.898;2023-12-07T12:54:50;4.11;81.11
69208;SHT31;70114;47.690;8.898;2023-12-07T12:57:17;4.05;81.00
69208;SHT31;70114;47.690;8.898;2023-12-07T12:59:44;4.48;79.41
69208;SHT31;70114;47.690;8.898;2023-12-07T13:02:10;4.45;79.97
69208;SHT31;70114;47.690;8.898;2023-12-07T13:07:29;4.40;78.69
69208;SHT31;70114;47.690;8.898;2023-12-07T13:09:54;4.70;78.82
69208;SHT31;70114;47.690;8.898;2023-12-07T13:12:20;5.11;77.98
69208;SHT31;70114;47.690;8.898;2023-12-07T13:14:47;5.37;77.78
69208;SHT31;70114;47.690;8.898;2023-12-07T13:17:12;5.66;76.63
69208;SHT31;70114;47.690;8.898;2023-12-07T13:19:38;5.93;75.88
69208;SHT31;70114;47.690;8.898;2023-12-07T13:22:03;6.11;74.74
69208;SHT31;70114;47.690;8.898;2023-12-07T13:24:29;6.40;74.07
69208;SHT31;70114;47.690;8.898;2023-12-07T13:26:55;6.56;73.52
69208;SHT31;70114;47.690;8.898;2023-12-07T13:29:22;6.40;72.48
69208;SHT31;70114;47.690;8.898;2023-12-07T13:31:48;6.59;73.14
69208;SHT31;70114;47.690;8.898;2023-12-07T13:34:14;6.79;72.95
69208;SHT31;70114;47.690;8.898;2023-12-07T13:36:40;6.86;71.12
69208;SHT31;70114;47.690;8.898;2023-12-07T13:39:05;6.79;71.33
69208;SHT31;70114;47.690;8.898;2023-12-07T13:41:31;6.85;71.79
69208;SHT31;70114;47.690;8.898;2023-12-07T13:43:56;6.89;71.96
69208;SHT31;70114;47.690;8.898;2023-12-07T13:46:22;7.00;72.09
69208;SHT31;70114;47.690;8.898;2023-12-07T13:48:48;6.81;70.79
69208;SHT31;70114;47.690;8.898;2023-12-07T13:51:13;6.89;71.27
69208;SHT31;70114;47.690;8.898;2023-12-07T13:53:39;6.81;70.93
69208;SHT31;70114;47.690;8.898;2023-12-07T13:56:05;6.65;71.14
69208;SHT31;70114;47.690;8.898;2023-12-07T13:58:33;6.73;72.31
69208;SHT31;70114;47.690;8.898;2023-12-07T14:01:00;6.61;71.40
69208;SHT31;70114;47.690;8.898;2023-12-07T14:03:26;5.96;72.72
69208;SHT31;70114;47.690;8.898;2023-12-07T14:05:52;6.16;72.81
69208;SHT31;70114;47.690;8.898;2023-12-07T14:08:17;6.37;72.48
69208;SHT31;70114;47.690;8.898;2023-12-07T14:10:44;6.27;72.10
69208;SHT31;70114;47.690;8.898;2023-12-07T14:13:10;6.33;72.87
69208;SHT31;70114;47.690;8.898;2023-12-07T14:15:35;6.27;72.00
69208;SHT31;70114;47.690;8.898;2023-12-07T14:18:01;6.37;72.48
69208;SHT31;70114;47.690;8.898;2023-12-07T14:20:30;6.38;72.33
69208;SHT31;70114;47.690;8.898;2023-12-07T14:22:56;6.23;71.98
69208;SHT31;70114;47.690;8.898;2023-12-07T14:25:22;6.27;72.77
69208;SHT31;70114;47.690;8.898;2023-12-07T14:27:48;6.41;72.87
69208;SHT31;70114;47.690;8.898;2023-12-07T14:30:14;6.34;72.64
69208;SHT31;70114;47.690;8.898;2023-12-07T14:32:42;6.44;72.41
69208;SHT31;70114;47.690;8.898;2023-12-07T14:35:09;6.35;71.84
69208;SHT31;70114;47.690;8.898;2023-12-07T14:37:34;6.28;71.83
69208;SHT31;70114;47.690;8.898;2023-12-07T14:40:00;6.20;72.70
69208;SHT31;70114;47.690;8.898;2023-12-07T14:42:25;6.16;72.75
69208;SHT31;70114;47.690;8.898;2023-12-07T14:44:51;6.09;73.04
69208;SHT31;70114;47.690;8.898;2023-12-07T14:47:16;6.00;73.13
69208;SHT31;70114;47.690;8.898;2023-12-07T14:49:42;5.96;72.90
69208;SHT31;70114;47.690;8.898;2023-12-07T14:52:07;5.85;73.04
69208;SHT31;70114;47.690;8.898;2023-12-07T14:54:32;5.79;73.72
69208;SHT31;70114;47.690;8.898;2023-12-07T14:57:01;5.52;73.48
69208;SHT31;70114;47.690;8.898;2023-12-07T14:59:28;5.27;74.27
69208;SHT31;70114;47.690;8.898;2023-12-07T15:01:53;5.17;74.68
69208;SHT31;70114;47.690;8.898;2023-12-07T15:04:19;5.04;75.90
69208;SHT31;70114;47.690;8.898;2023-12-07T15:06:44;4.69;76.00
69208;SHT31;70114;47.690;8.898;2023-12-07T15:09:10;4.59;75.82
69208;SHT31;70114;47.690;8.898;2023-12-07T15:11:35;4.48;75.73
69208;SHT31;70114;47.690;8.898;2023-12-07T15:14:02;4.40;76.88
69208;SHT31;70114;47.690;8.898;2023-12-07T15:16:28;4.27;76.33
69208;SHT31;70114;47.690;8.898;2023-12-07T15:18:53;4.22;75.92
69208;SHT31;70114;47.690;8.898;2023-12-07T15:21:19;4.24;76.46
69208;SHT31;70114;47.690;8.898;2023-12-07T15:23:45;4.07;76.13
69208;SHT31;70114;47.690;8.898;2023-12-07T15:26:11;3.76;77.06
69208;SHT31;70114;47.690;8.898;2023-12-07T15:28:38;3.63;77.39
69208;SHT31;70114;47.690;8.898;2023-12-07T15:31:04;3.67;77.27
69208;SHT31;70114;47.690;8.898;2023-12-07T15:33:31;3.45;78.12
69208;SHT31;70114;47.690;8.898;2023-12-07T15:35:58;3.58;77.64
69208;SHT31;70114;47.690;8.898;2023-12-07T15:38:23;3.42;76.98
69208;SHT31;70114;47.690;8.898;2023-12-07T15:40:48;3.43;77.56
69208;SHT31;70114;47.690;8.898;2023-12-07T15:43:14;3.19;77.67
69208;SHT31;70114;47.690;8.898;2023-12-07T15:45:39;3.15;77.30